Terminal Aerodrome Forecast
Issued by NWS

Home | Current Version | Previous Version | Text Only | Print | Product List | Glossary On
Versions: 1 2 3 4 5 6 7 8 9 10 11 12 13 14 15 16 17 18 19 20 21 22 23 24 25 26 27 28 29 30 31 32 33 34 35 36 37 38 39 40 41 42 43 44 45 46 47 48 49 50
000
FTUS42 KMLB 140556
TAFLEE
TAF
KLEE 140556Z 1406/1506 19007KT P6SM BKN015 OVC025
      TEMPO 1406/1409 BKN006 OVC015
     FM141000 22009KT 6SM -TSRA BKN030CB OVC050
      TEMPO 1410/1411 27020G30KT 3SM TSRA BKN020CB
     FM141100 26010KT P6SM VCSH SCT030 BKN050
     FM141400 29012G18KT P6SM SCT250
     FM150000 33004KT P6SM SKC=

USA.gov is the U.S. government's official web portal to all federal, state and local government web resources and services.